createdAt,value
2018-03-16T00:00:09.280Z,26.00
2018-03-16T00:02:36.760Z,29.47
2018-03-16T00:05:04.221Z,29.30
2018-03-16T00:07:31.692Z,19.00
2018-03-16T00:09:59.193Z,27.70
2018-03-16T00:12:26.648Z,23.77
2018-03-16T00:14:54.208Z,28.70
2018-03-16T00:17:21.673Z,24.67
2018-03-16T00:19:49.156Z,29.80
2018-03-16T00:22:22.364Z,26.07
2018-03-16T00:24:49.841Z,27.30
2018-03-16T00:27:17.324Z,27.87
2018-03-16T00:29:44.772Z,28.27
2018-03-16T00:32:12.257Z,27.47
2018-03-16T00:34:39.737Z,28.80
2018-03-16T00:37:07.189Z,23.20
2018-03-16T00:39:34.664Z,27.80
2018-03-16T00:42:02.133Z,28.33
2018-03-16T00:44:29.610Z,29.50
2018-03-16T00:46:57.829Z,26.50
2018-03-16T00:49:25.360Z,26.80
2018-03-16T00:51:52.812Z,27.17
2018-03-16T00:54:20.289Z,28.53
2018-03-16T00:56:47.750Z,27.00
2018-03-16T00:59:15.224Z,27.37
2018-03-16T01:01:42.686Z,27.03
2018-03-16T01:04:10.220Z,27.50
2018-03-16T01:06:37.950Z,20.73
2018-03-16T01:09:06.193Z,28.17
2018-03-16T01:11:33.707Z,27.20
2018-03-16T01:14:01.205Z,21.90
2018-03-16T01:16:28.652Z,26.27
2018-03-16T01:18:56.134Z,28.17
2018-03-16T01:21:23.588Z,26.77
2018-03-16T01:23:51.056Z,26.63
2018-03-16T01:26:18.553Z,28.07
2018-03-16T01:28:46.009Z,23.47
2018-03-16T01:31:13.481Z,27.87
2018-03-16T01:33:40.929Z,10.23
2018-03-16T01:36:08.433Z,13.40
2018-03-16T01:38:35.880Z,29.93
2018-03-16T01:41:04.113Z,25.87
2018-03-16T01:43:31.795Z,20.33
2018-03-16T01:45:59.273Z,27.53
2018-03-16T01:48:26.781Z,28.00
2018-03-16T01:50:55.017Z,27.27
2018-03-16T01:53:22.471Z,16.47
2018-03-16T01:55:49.945Z,26.20
2018-03-16T01:58:17.833Z,20.87
2018-03-16T02:00:45.285Z,22.57
2018-03-16T02:03:12.765Z,23.00
2018-03-16T02:05:41.053Z,13.93
2018-03-16T02:08:08.508Z,22.03
2018-03-16T02:10:36.000Z,19.80
2018-03-16T02:13:03.461Z,21.13
2018-03-16T02:15:30.928Z,22.57
2018-03-16T02:17:58.404Z,28.07
2018-03-16T02:20:25.881Z,19.33
2018-03-16T02:22:53.327Z,18.77
2018-03-16T02:25:20.805Z,23.90
2018-03-16T02:27:48.257Z,19.37
2018-03-16T02:30:15.737Z,19.83
2018-03-16T02:32:43.210Z,27.50
2018-03-16T02:35:10.679Z,22.97
2018-03-16T02:37:38.153Z,23.47
2018-03-16T02:40:05.648Z,13.37
2018-03-16T02:42:33.895Z,27.80
2018-03-16T02:45:01.366Z,19.70
2018-03-16T02:47:28.829Z,24.03
2018-03-16T02:49:56.300Z,29.03
2018-03-16T02:52:24.546Z,29.33
2018-03-16T02:54:52.020Z,27.67
2018-03-16T02:57:19.503Z,24.83
2018-03-16T02:59:47.746Z,12.07
2018-03-16T03:02:15.271Z,28.47
2018-03-16T03:04:42.733Z,25.40
2018-03-16T03:07:10.208Z,19.00
2018-03-16T03:09:37.665Z,21.97
2018-03-16T03:12:05.157Z,21.90
2018-03-16T03:14:32.633Z,19.37
2018-03-16T03:17:00.086Z,28.33
2018-03-16T03:19:27.555Z,20.33
2018-03-16T03:21:55.022Z,30.23
2018-03-16T03:24:22.500Z,16.70
2018-03-16T03:26:49.953Z,26.30
2018-03-16T03:29:17.438Z,25.10
2018-03-16T03:31:44.926Z,25.00
2018-03-16T03:34:13.207Z,26.93
2018-03-16T03:36:40.652Z,24.30
2018-03-16T03:39:08.141Z,28.70
2018-03-16T03:41:35.617Z,16.67
2018-03-16T03:44:03.082Z,22.43
2018-03-16T03:46:30.548Z,25.43
2018-03-16T03:48:58.024Z,25.50
2018-03-16T03:51:25.492Z,16.80
2018-03-16T03:53:52.953Z,21.80
2018-03-16T03:56:20.447Z,27.37
2018-03-16T03:58:47.897Z,14.17
2018-03-16T04:01:15.361Z,25.80
2018-03-16T04:03:43.597Z,27.50
2018-03-16T04:06:11.078Z,27.87
2018-03-16T04:08:38.526Z,18.17
2018-03-16T04:11:06.005Z,26.97
2018-03-16T04:13:33.458Z,26.43
2018-03-16T04:16:00.916Z,27.70
2018-03-16T04:18:28.398Z,24.70
2018-03-16T04:20:56.016Z,19.90
2018-03-16T04:23:23.493Z,22.83
2018-03-16T04:25:51.093Z,20.83
2018-03-16T04:28:20.121Z,27.70
2018-03-16T04:30:47.596Z,20.60
2018-03-16T04:33:15.044Z,18.43
2018-03-16T04:35:42.520Z,14.27
2018-03-16T04:38:10.812Z,21.10
2018-03-16T04:40:38.286Z,19.00
2018-03-16T04:43:05.761Z,27.97
2018-03-16T04:45:33.240Z,25.03
2018-03-16T04:48:00.756Z,21.20
2018-03-16T04:50:28.248Z,27.30
2018-03-16T04:52:55.696Z,21.37
2018-03-16T04:55:23.150Z,20.67
2018-03-16T04:57:50.625Z,18.67
2018-03-16T05:00:18.145Z,13.20
2018-03-16T05:02:45.591Z,21.87
2018-03-16T05:05:13.846Z,16.60
2018-03-16T05:07:41.297Z,20.73
2018-03-16T05:10:08.786Z,24.27
2018-03-16T05:12:37.013Z,19.70
2018-03-16T05:15:04.497Z,28.30
2018-03-16T05:17:31.953Z,32.67
2018-03-16T05:19:59.497Z,25.87
2018-03-16T05:22:26.979Z,29.83
2018-03-16T05:24:54.452Z,28.70
2018-03-16T05:27:21.909Z,21.70
2018-03-16T05:29:49.382Z,25.87
2018-03-16T05:32:16.865Z,30.37
2018-03-16T05:34:44.312Z,17.60
2018-03-16T05:37:12.025Z,26.47
2018-03-16T05:39:40.285Z,28.87
2018-03-16T05:42:07.774Z,29.57
2018-03-16T05:44:36.010Z,27.77
2018-03-16T05:47:03.549Z,24.63
2018-03-16T05:49:31.059Z,30.17
2018-03-16T05:51:58.517Z,27.97
2018-03-16T05:54:26.000Z,29.80
2018-03-16T05:56:53.455Z,29.93
2018-03-16T05:59:21.009Z,31.43
2018-03-16T06:01:49.243Z,22.87
2018-03-16T06:04:16.746Z,30.80
2018-03-16T06:06:44.198Z,24.77
2018-03-16T06:09:11.706Z,29.30
2018-03-16T06:11:39.184Z,29.40
2018-03-16T06:14:06.636Z,21.27
2018-03-16T06:16:34.116Z,30.70
2018-03-16T06:19:01.563Z,32.47
2018-03-16T06:21:29.053Z,19.10
2018-03-16T06:23:56.516Z,23.77
2018-03-16T06:26:24.013Z,32.00
2018-03-16T06:28:51.520Z,24.17
2018-03-16T06:31:19.757Z,24.10
2018-03-16T06:33:47.248Z,16.80
2018-03-16T06:36:14.697Z,14.80
2018-03-16T06:38:42.247Z,20.80
2018-03-16T06:41:09.729Z,28.90
2018-03-16T06:43:37.608Z,24.17
2018-03-16T06:46:06.252Z,24.97
2018-03-16T06:48:33.721Z,29.07
2018-03-16T06:51:01.294Z,29.40
2018-03-16T06:53:28.765Z,28.07
2018-03-16T06:55:56.996Z,23.40
2018-03-16T06:58:24.465Z,26.90
2018-03-16T07:00:51.973Z,27.80
2018-03-16T07:03:20.407Z,26.37
2018-03-16T07:05:47.888Z,22.00
2018-03-16T07:08:15.359Z,28.30
2018-03-16T07:10:43.617Z,26.63
2018-03-16T07:13:11.072Z,27.87
2018-03-16T07:15:38.524Z,28.40
2018-03-16T07:18:05.996Z,26.93
2018-03-16T07:20:34.254Z,29.43
2018-03-16T07:23:01.804Z,26.40
2018-03-16T07:25:29.277Z,17.30
2018-03-16T07:27:56.733Z,28.40
2018-03-16T07:30:24.200Z,21.27
2018-03-16T07:32:51.714Z,30.17
2018-03-16T07:35:19.124Z,23.60
2018-03-16T07:37:46.620Z,29.57
2018-03-16T07:40:14.087Z,27.50
2018-03-16T07:42:41.545Z,25.83
2018-03-16T07:45:09.029Z,23.80
2018-03-16T07:47:36.526Z,27.90
2018-03-16T07:50:03.981Z,30.97
2018-03-16T07:52:32.219Z,26.23
2018-03-16T07:54:59.732Z,22.30
2018-03-16T07:57:27.192Z,24.30
2018-03-16T07:59:54.676Z,23.63
2018-03-16T08:02:22.144Z,27.63
2018-03-16T08:04:50.368Z,25.17
2018-03-16T08:07:17.846Z,23.73
2018-03-16T08:09:45.337Z,17.83
2018-03-16T08:12:12.801Z,25.87
2018-03-16T08:14:40.313Z,27.70
2018-03-16T08:17:08.686Z,24.93
2018-03-16T08:19:36.266Z,19.97
2018-03-16T08:22:03.759Z,22.83
2018-03-16T08:24:31.221Z,23.67
2018-03-16T08:26:58.677Z,24.13
2018-03-16T08:29:26.149Z,16.77
2018-03-16T08:31:53.625Z,26.13
2018-03-16T08:34:21.080Z,27.30
2018-03-16T08:36:48.537Z,22.10
2018-03-16T08:39:16.018Z,23.47
2018-03-16T08:41:43.496Z,24.07
2018-03-16T08:44:10.989Z,24.10
2018-03-16T08:46:38.465Z,20.67
2018-03-16T08:49:06.006Z,22.80
2018-03-16T08:51:33.461Z,16.83
2018-03-16T08:54:00.932Z,13.67
2018-03-16T08:56:28.407Z,23.10
2018-03-16T08:58:55.856Z,17.67
2018-03-16T09:01:23.332Z,23.57
2018-03-16T09:03:50.788Z,21.70
2018-03-16T09:06:18.268Z,22.03
2018-03-16T09:08:45.712Z,12.87
2018-03-16T09:11:13.214Z,20.87
2018-03-16T09:13:46.627Z,20.00
2018-03-16T09:16:14.130Z,20.50
2018-03-16T09:18:42.425Z,18.57
2018-03-16T09:21:09.893Z,18.27
2018-03-16T09:23:37.377Z,19.10
2018-03-16T09:26:04.856Z,16.93
2018-03-16T09:28:32.325Z,14.17
2018-03-16T09:30:59.799Z,17.17
2018-03-16T09:33:27.272Z,17.63
2018-03-16T09:35:54.762Z,16.60
2018-03-16T09:38:22.241Z,18.77
2018-03-16T09:40:49.688Z,19.10
2018-03-16T09:43:17.173Z,18.77
2018-03-16T09:45:44.658Z,12.57
2018-03-16T09:48:12.166Z,19.00
2018-03-16T09:50:39.692Z,17.20
2018-03-16T09:53:07.102Z,15.40
2018-03-16T09:55:40.336Z,14.77
2018-03-16T09:58:07.833Z,18.63
2018-03-16T10:00:35.285Z,13.67
2018-03-16T10:03:02.758Z,11.90
2018-03-16T10:05:30.244Z,13.00
2018-03-16T10:07:58.480Z,15.63
2018-03-16T10:10:26.717Z,15.37
2018-03-16T10:12:54.194Z,15.77
2018-03-16T10:15:21.649Z,17.27
2018-03-16T10:17:49.162Z,17.37
2018-03-16T10:20:16.656Z,15.63
2018-03-16T10:22:44.137Z,16.17
2018-03-16T10:25:11.582Z,16.33
2018-03-16T10:27:39.081Z,20.13
2018-03-16T10:30:06.523Z,17.60
2018-03-16T10:32:33.971Z,17.10
2018-03-16T10:35:01.445Z,17.70
2018-03-16T10:37:28.930Z,18.60
2018-03-16T10:39:56.422Z,11.57
2018-03-16T10:42:23.879Z,17.00
2018-03-16T10:44:51.373Z,15.63
2018-03-16T10:47:18.829Z,18.87
2018-03-16T10:49:46.294Z,18.97
2018-03-16T10:52:13.809Z,19.83
2018-03-16T10:54:41.284Z,21.40
2018-03-16T10:57:08.760Z,17.60
2018-03-16T10:59:36.266Z,21.83
2018-03-16T11:02:10.257Z,21.17
2018-03-16T11:04:40.680Z,19.17
2018-03-16T11:07:17.985Z,20.40
2018-03-16T11:09:45.463Z,19.30
2018-03-16T11:12:12.926Z,21.00
2018-03-16T11:14:40.404Z,13.77
2018-03-16T11:17:07.853Z,19.30
2018-03-16T11:19:36.417Z,20.33
2018-03-16T11:22:04.630Z,21.13
2018-03-16T11:24:32.118Z,19.47
2018-03-16T11:26:59.574Z,22.20
2018-03-16T11:29:27.034Z,14.93
2018-03-16T11:31:54.505Z,15.77
2018-03-16T11:34:21.976Z,19.17
2018-03-16T11:36:50.213Z,19.20
2018-03-16T11:39:17.706Z,15.60
2018-03-16T11:41:45.937Z,17.13
2018-03-16T11:44:13.388Z,17.53
2018-03-16T11:46:40.889Z,17.87
2018-03-16T11:49:09.187Z,16.77
2018-03-16T11:51:36.669Z,15.40
2018-03-16T11:54:04.137Z,17.30
2018-03-16T11:56:31.610Z,17.30
2018-03-16T11:58:59.092Z,16.30
2018-03-16T12:01:26.571Z,14.50
2018-03-16T12:03:54.788Z,14.87
2018-03-16T12:06:22.290Z,16.10
2018-03-16T12:08:49.792Z,15.77
2018-03-16T12:11:17.241Z,18.93
2018-03-16T12:13:44.724Z,16.20
2018-03-16T12:16:12.209Z,15.37
2018-03-16T12:18:39.714Z,14.97
2018-03-16T12:21:07.185Z,14.53
2018-03-16T12:23:34.648Z,17.87
2018-03-16T12:26:02.105Z,14.37
2018-03-16T12:28:49.272Z,15.80
2018-03-16T12:30:57.104Z,16.00
2018-03-16T12:33:24.505Z,10.67
2018-03-16T12:35:51.978Z,14.83
2018-03-16T12:38:19.481Z,13.00
2018-03-16T12:40:47.722Z,14.20
2018-03-16T12:43:15.184Z,15.20
2018-03-16T12:45:42.663Z,12.07
2018-03-16T12:48:10.105Z,8.47
2018-03-16T12:50:38.352Z,10.67
2018-03-16T12:53:05.806Z,10.40
2018-03-16T12:55:33.265Z,7.60
2018-03-16T12:58:00.733Z,11.50
2018-03-16T13:00:28.202Z,12.20
2018-03-16T13:02:55.682Z,9.40
2018-03-16T13:05:23.921Z,9.87
2018-03-16T13:07:51.420Z,11.17
2018-03-16T13:10:18.989Z,11.50
2018-03-16T13:12:46.484Z,10.67
2018-03-16T13:15:13.957Z,11.00
2018-03-16T13:17:41.414Z,10.87
2018-03-16T13:20:08.892Z,9.43
2018-03-16T13:22:36.344Z,10.77
2018-03-16T13:25:03.789Z,8.90
2018-03-16T13:27:31.331Z,11.80
2018-03-16T13:29:58.748Z,12.37
2018-03-16T13:32:26.210Z,10.30
2018-03-16T13:34:53.693Z,9.53
2018-03-16T13:37:21.169Z,9.63
2018-03-16T13:39:48.671Z,10.87
2018-03-16T13:42:16.926Z,10.50
2018-03-16T13:44:44.414Z,11.43
2018-03-16T13:47:12.640Z,10.83
2018-03-16T13:49:40.103Z,8.23
2018-03-16T13:52:07.569Z,9.70
2018-03-16T13:54:35.049Z,8.87
2018-03-16T13:57:02.497Z,11.20
2018-03-16T13:59:30.119Z,9.87
2018-03-16T14:01:57.624Z,10.30
2018-03-16T14:04:25.097Z,11.47
2018-03-16T14:06:53.304Z,10.77
2018-03-16T14:09:20.849Z,7.60
2018-03-16T14:11:48.331Z,8.33
2018-03-16T14:14:15.862Z,9.53
2018-03-16T14:16:43.265Z,9.87
2018-03-16T14:19:10.737Z,10.67
2018-03-16T14:21:38.216Z,11.30
2018-03-16T14:24:05.664Z,11.03
2018-03-16T14:26:33.136Z,10.30
2018-03-16T14:29:00.584Z,9.70
2018-03-16T14:31:28.069Z,10.00
2018-03-16T14:33:55.629Z,9.10
2018-03-16T14:36:23.092Z,9.37
2018-03-16T14:38:50.572Z,9.67
2018-03-16T14:41:18.045Z,11.83
2018-03-16T14:43:45.507Z,10.07
2018-03-16T14:46:12.984Z,10.70
2018-03-16T14:48:40.437Z,11.00
2018-03-16T14:51:07.904Z,9.73
2018-03-16T14:53:35.377Z,9.97
2018-03-16T14:56:02.834Z,10.30
2018-03-16T14:58:31.069Z,10.63
2018-03-16T15:00:58.520Z,5.90
2018-03-16T15:03:26.001Z,7.53
2018-03-16T15:05:53.460Z,9.23
2018-03-16T15:08:20.960Z,7.23
2018-03-16T15:10:48.408Z,10.40
2018-03-16T15:13:15.880Z,9.60
2018-03-16T15:15:43.345Z,8.90
2018-03-16T15:18:10.829Z,10.10
2018-03-16T15:20:38.294Z,9.97
2018-03-16T15:23:05.743Z,11.17
2018-03-16T15:25:33.203Z,8.30
2018-03-16T15:28:00.873Z,8.70
2018-03-16T15:30:28.326Z,8.87
2018-03-16T15:32:55.809Z,11.53
2018-03-16T15:35:23.272Z,11.40
2018-03-16T15:37:50.738Z,13.40
2018-03-16T15:40:18.187Z,8.80
2018-03-16T15:42:45.677Z,9.67
2018-03-16T15:45:13.137Z,13.13
2018-03-16T15:47:40.591Z,8.50
2018-03-16T15:50:08.067Z,12.23
2018-03-16T15:52:35.608Z,10.83
2018-03-16T15:55:03.101Z,10.47
2018-03-16T15:57:30.564Z,11.57
2018-03-16T15:59:58.277Z,10.57
2018-03-16T16:02:25.748Z,12.20
2018-03-16T16:04:53.226Z,10.87
2018-03-16T16:07:20.689Z,12.03
2018-03-16T16:09:48.196Z,12.60
2018-03-16T16:12:15.630Z,11.87
2018-03-16T16:14:43.114Z,10.10
2018-03-16T16:17:10.585Z,8.87
2018-03-16T16:19:38.036Z,8.60
2018-03-16T16:22:06.302Z,12.90
2018-03-16T16:24:33.762Z,11.13
2018-03-16T16:27:01.229Z,5.67
2018-03-16T16:29:29.444Z,9.07
2018-03-16T16:31:56.984Z,9.93
2018-03-16T16:34:24.417Z,10.77
2018-03-16T16:36:51.864Z,11.00
2018-03-16T16:39:19.315Z,11.70
2018-03-16T16:41:46.783Z,12.90
2018-03-16T16:44:14.229Z,10.87
2018-03-16T16:46:41.709Z,13.63
2018-03-16T16:49:09.165Z,12.40
2018-03-16T16:51:37.401Z,12.80
2018-03-16T16:54:04.858Z,13.07
2018-03-16T16:56:32.346Z,12.40
2018-03-16T16:58:59.805Z,9.47
2018-03-16T17:01:27.313Z,10.73
2018-03-16T17:03:54.760Z,12.60
2018-03-16T17:06:22.212Z,9.90
2018-03-16T17:08:49.676Z,9.63
2018-03-16T17:11:17.131Z,9.60
2018-03-16T17:13:44.613Z,10.70
2018-03-16T17:16:12.104Z,10.17
2018-03-16T17:18:39.589Z,10.87
2018-03-16T17:21:07.054Z,11.50
2018-03-16T17:23:34.544Z,8.27
2018-03-16T17:26:02.006Z,3.93
2018-03-16T17:28:29.516Z,9.57
2018-03-16T17:30:57.763Z,8.07
2018-03-16T17:33:25.233Z,8.80
2018-03-16T17:35:52.693Z,10.90
2018-03-16T17:38:20.182Z,10.10
2018-03-16T17:40:47.671Z,9.40
2018-03-16T17:43:15.225Z,10.53
2018-03-16T17:45:42.712Z,10.40
2018-03-16T17:48:10.229Z,10.50
2018-03-16T17:50:37.705Z,12.60
2018-03-16T17:53:05.219Z,11.97
2018-03-16T17:55:33.449Z,10.83
2018-03-16T17:58:00.946Z,11.20
2018-03-16T18:00:28.405Z,10.07
2018-03-16T18:02:55.856Z,11.93
2018-03-16T18:05:23.331Z,11.20
2018-03-16T18:07:51.561Z,9.40
2018-03-16T18:10:19.053Z,15.97
2018-03-16T18:12:46.543Z,19.73
2018-03-16T18:15:14.031Z,124.07
2018-03-16T18:17:41.605Z,9.30
2018-03-16T18:20:09.123Z,11.00
2018-03-16T18:22:37.356Z,10.80
2018-03-16T18:25:04.800Z,9.33
2018-03-16T18:27:32.278Z,10.93
2018-03-16T18:29:59.736Z,7.17
2018-03-16T18:32:27.208Z,8.53
2018-03-16T18:34:55.435Z,10.13
2018-03-16T18:37:22.976Z,10.70
2018-03-16T18:39:50.420Z,8.37
2018-03-16T18:42:17.925Z,8.00
2018-03-16T18:44:45.393Z,6.30
2018-03-16T18:47:12.825Z,7.47
2018-03-16T18:49:40.316Z,5.77
2018-03-16T18:52:07.850Z,7.13
2018-03-16T18:54:36.144Z,6.17
2018-03-16T18:57:04.374Z,8.37
2018-03-16T18:59:31.888Z,9.17
2018-03-16T19:01:59.561Z,10.00
2018-03-16T19:04:27.840Z,6.80
2018-03-16T19:06:55.311Z,8.37
2018-03-16T19:09:23.540Z,9.07
2018-03-16T19:11:51.025Z,9.53
2018-03-16T19:14:18.472Z,9.80
2018-03-16T19:16:46.188Z,9.10
2018-03-16T19:19:13.659Z,7.80
2018-03-16T19:21:41.302Z,8.83
2018-03-16T19:24:09.557Z,5.37
2018-03-16T19:26:37.801Z,7.10
2018-03-16T19:29:05.266Z,8.50
2018-03-16T19:31:32.726Z,8.77
2018-03-16T19:34:00.196Z,10.03
2018-03-16T19:36:27.751Z,9.50
2018-03-16T19:38:55.285Z,6.40
2018-03-16T19:41:22.733Z,9.13
2018-03-16T19:43:50.200Z,10.93
2018-03-16T19:46:17.680Z,5.63
2018-03-16T19:48:45.193Z,6.00
2018-03-16T19:51:12.605Z,6.03
2018-03-16T19:53:40.075Z,7.60
2018-03-16T19:56:07.631Z,7.40
2018-03-16T19:58:35.113Z,10.03
2018-03-16T20:01:02.839Z,9.00
2018-03-16T20:03:30.355Z,6.90
2018-03-16T20:05:57.820Z,8.77
2018-03-16T20:08:25.292Z,8.33
2018-03-16T20:10:53.061Z,10.03
2018-03-16T20:13:20.758Z,7.77
2018-03-16T20:15:48.236Z,8.87
2018-03-16T20:18:16.946Z,6.83
2018-03-16T20:20:44.697Z,6.23
2018-03-16T20:23:12.210Z,8.27
2018-03-16T20:25:39.690Z,8.53
2018-03-16T20:28:08.270Z,9.13
2018-03-16T20:30:36.508Z,7.60
2018-03-16T20:33:04.196Z,7.83
2018-03-16T20:35:31.712Z,8.00
2018-03-16T20:37:59.411Z,8.83
2018-03-16T20:40:27.081Z,5.50
2018-03-16T20:42:54.903Z,7.63
2018-03-16T20:45:22.457Z,8.10
2018-03-16T20:47:50.115Z,8.40
2018-03-16T20:50:17.774Z,7.60
2018-03-16T20:52:45.424Z,8.37
2018-03-16T20:55:12.989Z,7.50
2018-03-16T20:57:41.340Z,8.73
2018-03-16T21:00:09.097Z,6.50
2018-03-16T21:02:36.824Z,8.37
2018-03-16T21:05:04.629Z,7.77
2018-03-16T21:07:32.121Z,7.43
2018-03-16T21:09:59.813Z,8.13
2018-03-16T21:12:27.393Z,6.50
2018-03-16T21:14:55.057Z,5.60
2018-03-16T21:17:22.637Z,8.10
2018-03-16T21:19:50.984Z,6.80
2018-03-16T21:22:18.811Z,5.23
2018-03-16T21:24:47.328Z,7.60
2018-03-16T21:27:14.854Z,7.30
2018-03-16T21:29:42.536Z,7.00
2018-03-16T21:32:10.036Z,4.83
2018-03-16T21:34:37.496Z,6.23
2018-03-16T21:37:05.025Z,4.17
2018-03-16T21:39:32.742Z,4.17
2018-03-16T21:42:00.313Z,6.07
2018-03-16T21:44:28.546Z,4.47
2018-03-16T21:46:56.781Z,7.07
2018-03-16T21:49:24.248Z,7.80
2018-03-16T21:51:51.697Z,6.23
2018-03-16T21:54:19.152Z,3.30
2018-03-16T21:56:46.869Z,5.40
2018-03-16T21:59:14.352Z,6.90
2018-03-16T22:01:41.827Z,4.93
2018-03-16T22:04:10.071Z,5.60
2018-03-16T22:06:37.516Z,6.93
2018-03-16T22:09:05.020Z,6.60
2018-03-16T22:11:33.237Z,3.00
2018-03-16T22:14:00.816Z,4.97
2018-03-16T22:16:28.269Z,6.80
2018-03-16T22:18:55.745Z,6.37
2018-03-16T22:21:23.188Z,6.40
2018-03-16T22:23:50.680Z,4.93
2018-03-16T22:26:18.149Z,4.83
2018-03-16T22:28:45.594Z,5.77
2018-03-16T22:31:13.073Z,6.70
2018-03-16T22:33:40.521Z,7.00
2018-03-16T22:36:08.729Z,5.73
2018-03-16T22:38:36.212Z,6.07
2018-03-16T22:41:03.666Z,6.70
2018-03-16T22:43:31.114Z,5.80
2018-03-16T22:45:58.581Z,4.00
2018-03-16T22:48:26.033Z,6.00
2018-03-16T22:50:53.504Z,7.93
2018-03-16T22:53:20.978Z,6.57
2018-03-16T22:55:48.428Z,5.20
2018-03-16T22:58:15.900Z,3.37
2018-03-16T23:00:43.337Z,4.20
2018-03-16T23:03:10.784Z,3.80
2018-03-16T23:05:38.265Z,6.53
2018-03-16T23:08:05.705Z,6.33
2018-03-16T23:10:33.173Z,7.33
2018-03-16T23:13:00.644Z,7.00
2018-03-16T23:15:28.092Z,6.57
2018-03-16T23:17:55.574Z,6.77
2018-03-16T23:20:23.029Z,5.60
2018-03-16T23:22:50.489Z,5.33
2018-03-16T23:25:17.958Z,6.23
2018-03-16T23:27:45.428Z,6.27
2018-03-16T23:30:12.982Z,3.67
2018-03-16T23:32:40.449Z,6.47
2018-03-16T23:35:07.897Z,6.40
2018-03-16T23:37:35.346Z,3.80
2018-03-16T23:40:03.593Z,5.57
2018-03-16T23:42:31.037Z,4.77
2018-03-16T23:44:58.513Z,4.23
2018-03-16T23:47:25.985Z,4.20
2018-03-16T23:49:53.456Z,4.50
2018-03-16T23:52:20.905Z,4.27
2018-03-16T23:54:48.393Z,5.07
2018-03-16T23:57:15.844Z,5.33
2018-03-16T23:59:43.381Z,4.27
